sensor_id;sensor_type;location;lat;lon;timestamp;temperature;humidity
51811;DHT22;52468;40.116;18.296;2023-09-18T00:01:55;22.60;76.60
51811;DHT22;52468;40.116;18.296;2023-09-18T00:04:23;22.60;76.70
51811;DHT22;52468;40.116;18.296;2023-09-18T00:06:51;22.60;76.60
51811;DHT22;52468;40.116;18.296;2023-09-18T00:09:19;22.50;76.60
51811;DHT22;52468;40.116;18.296;2023-09-18T00:11:47;22.50;76.50
51811;DHT22;52468;40.116;18.296;2023-09-18T00:14:15;22.50;76.20
51811;DHT22;52468;40.116;18.296;2023-09-18T00:16:43;22.50;76.30
51811;DHT22;52468;40.116;18.296;2023-09-18T00:19:18;22.50;76.20
51811;DHT22;52468;40.116;18.296;2023-09-18T00:21:46;22.50;76.20
51811;DHT22;52468;40.116;18.296;2023-09-18T00:24:14;22.50;76.30
51811;DHT22;52468;40.116;18.296;2023-09-18T00:26:42;22.50;76.10
51811;DHT22;52468;40.116;18.296;2023-09-18T00:29:10;22.50;76.10
51811;DHT22;52468;40.116;18.296;2023-09-18T00:31:38;22.50;76.00
51811;DHT22;52468;40.116;18.296;2023-09-18T00:34:06;22.50;76.10
51811;DHT22;52468;40.116;18.296;2023-09-18T00:36:34;22.40;76.20
51811;DHT22;52468;40.116;18.296;2023-09-18T00:39:02;22.30;76.50
51811;DHT22;52468;40.116;18.296;2023-09-18T00:41:31;22.20;76.70
51811;DHT22;52468;40.116;18.296;2023-09-18T00:44:00;22.20;76.80
51811;DHT22;52468;40.116;18.296;2023-09-18T00:46:28;22.20;77.00
51811;DHT22;52468;40.116;18.296;2023-09-18T00:48:56;22.10;77.20
51811;DHT22;52468;40.116;18.296;2023-09-18T00:51:24;22.10;77.30
51811;DHT22;52468;40.116;18.296;2023-09-18T00:53:52;22.10;77.30
51811;DHT22;52468;40.116;18.296;2023-09-18T00:56:20;22.10;77.40
51811;DHT22;52468;40.116;18.296;2023-09-18T00:58:50;22.10;77.30
51811;DHT22;52468;40.116;18.296;2023-09-18T01:01:19;22.10;77.40
51811;DHT22;52468;40.116;18.296;2023-09-18T01:03:50;22.00;77.40
51811;DHT22;52468;40.116;18.296;2023-09-18T01:06:19;22.00;77.40
51811;DHT22;52468;40.116;18.296;2023-09-18T01:08:48;22.00;77.70
51811;DHT22;52468;40.116;18.296;2023-09-18T01:14:29;22.00;77.50
51811;DHT22;52468;40.116;18.296;2023-09-18T01:17:01;22.00;77.30
51811;DHT22;52468;40.116;18.296;2023-09-18T01:19:40;22.00;77.60
51811;DHT22;52468;40.116;18.296;2023-09-18T01:22:09;22.10;77.90
51811;DHT22;52468;40.116;18.296;2023-09-18T01:24:39;22.10;78.20
51811;DHT22;52468;40.116;18.296;2023-09-18T01:27:17;22.10;78.40
51811;DHT22;52468;40.116;18.296;2023-09-18T01:29:46;22.20;78.50
51811;DHT22;52468;40.116;18.296;2023-09-18T01:32:15;22.30;78.50
51811;DHT22;52468;40.116;18.296;2023-09-18T01:34:48;22.30;78.70
51811;DHT22;52468;40.116;18.296;2023-09-18T01:37:23;22.40;78.70
51811;DHT22;52468;40.116;18.296;2023-09-18T01:39:52;22.50;78.70
51811;DHT22;52468;40.116;18.296;2023-09-18T01:42:21;22.50;78.80
51811;DHT22;52468;40.116;18.296;2023-09-18T01:44:51;22.50;78.50
51811;DHT22;52468;40.116;18.296;2023-09-18T01:47:20;22.50;78.40
51811;DHT22;52468;40.116;18.296;2023-09-18T01:49:51;22.50;78.70
51811;DHT22;52468;40.116;18.296;2023-09-18T01:52:19;22.50;78.60
51811;DHT22;52468;40.116;18.296;2023-09-18T01:54:47;22.60;78.80
51811;DHT22;52468;40.116;18.296;2023-09-18T01:57:16;22.50;78.80
51811;DHT22;52468;40.116;18.296;2023-09-18T01:59:44;22.60;78.70
51811;DHT22;52468;40.116;18.296;2023-09-18T02:02:13;22.50;78.70
51811;DHT22;52468;40.116;18.296;2023-09-18T02:04:41;22.60;78.70
51811;DHT22;52468;40.116;18.296;2023-09-18T02:07:09;22.60;78.70
51811;DHT22;52468;40.116;18.296;2023-09-18T02:09:37;22.60;78.80
51811;DHT22;52468;40.116;18.296;2023-09-18T02:12:05;22.60;78.60
51811;DHT22;52468;40.116;18.296;2023-09-18T02:14:33;22.60;78.60
51811;DHT22;52468;40.116;18.296;2023-09-18T02:17:01;22.60;78.50
51811;DHT22;52468;40.116;18.296;2023-09-18T02:19:30;22.60;78.60
51811;DHT22;52468;40.116;18.296;2023-09-18T02:21:58;22.60;78.70
51811;DHT22;52468;40.116;18.296;2023-09-18T02:24:26;22.60;78.70
51811;DHT22;52468;40.116;18.296;2023-09-18T02:26:54;22.60;78.70
51811;DHT22;52468;40.116;18.296;2023-09-18T02:29:22;22.50;78.70
51811;DHT22;52468;40.116;18.296;2023-09-18T02:31:50;22.60;78.70
51811;DHT22;52468;40.116;18.296;2023-09-18T02:34:18;22.60;78.60
51811;DHT22;52468;40.116;18.296;2023-09-18T02:36:46;22.60;78.50
51811;DHT22;52468;40.116;18.296;2023-09-18T02:39:15;22.60;78.40
51811;DHT22;52468;40.116;18.296;2023-09-18T02:41:44;22.60;78.40
51811;DHT22;52468;40.116;18.296;2023-09-18T02:44:12;22.60;78.40
51811;DHT22;52468;40.116;18.296;2023-09-18T02:46:41;22.60;78.30
51811;DHT22;52468;40.116;18.296;2023-09-18T02:49:12;22.60;78.20
51811;DHT22;52468;40.116;18.296;2023-09-18T02:51:40;22.60;78.00
51811;DHT22;52468;40.116;18.296;2023-09-18T02:54:08;22.60;77.90
51811;DHT22;52468;40.116;18.296;2023-09-18T02:56:36;22.50;77.80
51811;DHT22;52468;40.116;18.296;2023-09-18T02:59:06;22.50;77.80
51811;DHT22;52468;40.116;18.296;2023-09-18T03:01:35;22.50;77.80
51811;DHT22;52468;40.116;18.296;2023-09-18T03:04:03;22.50;77.90
51811;DHT22;52468;40.116;18.296;2023-09-18T03:06:31;22.50;77.80
51811;DHT22;52468;40.116;18.296;2023-09-18T03:09:00;22.50;77.80
51811;DHT22;52468;40.116;18.296;2023-09-18T03:11:28;22.40;78.00
51811;DHT22;52468;40.116;18.296;2023-09-18T03:13:57;22.40;78.00
51811;DHT22;52468;40.116;18.296;2023-09-18T03:16:25;22.40;78.00
51811;DHT22;52468;40.116;18.296;2023-09-18T03:18:53;22.50;77.90
51811;DHT22;52468;40.116;18.296;2023-09-18T03:21:22;22.50;77.90
51811;DHT22;52468;40.116;18.296;2023-09-18T03:23:50;22.50;77.90
51811;DHT22;52468;40.116;18.296;2023-09-18T03:26:18;22.50;77.90
51811;DHT22;52468;40.116;18.296;2023-09-18T03:28:46;22.50;77.80
51811;DHT22;52468;40.116;18.296;2023-09-18T03:31:15;22.50;77.70
51811;DHT22;52468;40.116;18.296;2023-09-18T03:33:43;22.50;77.70
51811;DHT22;52468;40.116;18.296;2023-09-18T03:36:11;22.50;77.60
51811;DHT22;52468;40.116;18.296;2023-09-18T03:38:39;22.50;77.60
51811;DHT22;52468;40.116;18.296;2023-09-18T03:41:08;22.50;77.60
51811;DHT22;52468;40.116;18.296;2023-09-18T03:43:35;22.60;77.60
51811;DHT22;52468;40.116;18.296;2023-09-18T03:46:07;22.60;77.30
51811;DHT22;52468;40.116;18.296;2023-09-18T03:48:43;22.60;77.30
51811;DHT22;52468;40.116;18.296;2023-09-18T03:51:11;22.60;77.10
51811;DHT22;52468;40.116;18.296;2023-09-18T03:53:43;22.50;77.10
51811;DHT22;52468;40.116;18.296;2023-09-18T03:56:12;22.50;77.10
51811;DHT22;52468;40.116;18.296;2023-09-18T03:58:40;22.50;77.10
51811;DHT22;52468;40.116;18.296;2023-09-18T04:01:08;22.50;76.90
51811;DHT22;52468;40.116;18.296;2023-09-18T04:03:36;22.50;76.90
51811;DHT22;52468;40.116;18.296;2023-09-18T04:06:04;22.40;77.00
51811;DHT22;52468;40.116;18.296;2023-09-18T04:08:32;22.40;77.10
51811;DHT22;52468;40.116;18.296;2023-09-18T04:11:00;22.40;77.10
51811;DHT22;52468;40.116;18.296;2023-09-18T04:13:28;22.40;77.20
51811;DHT22;52468;40.116;18.296;2023-09-18T04:15:57;22.40;77.30
51811;DHT22;52468;40.116;18.296;2023-09-18T04:18:25;22.40;77.20
51811;DHT22;52468;40.116;18.296;2023-09-18T04:20:54;22.40;77.10
51811;DHT22;52468;40.116;18.296;2023-09-18T04:23:25;22.40;77.20
51811;DHT22;52468;40.116;18.296;2023-09-18T04:25:54;22.40;77.20
51811;DHT22;52468;40.116;18.296;2023-09-18T04:28:22;22.50;77.30
51811;DHT22;52468;40.116;18.296;2023-09-18T04:30:51;22.40;77.40
51811;DHT22;52468;40.116;18.296;2023-09-18T04:33:20;22.50;77.40
51811;DHT22;52468;40.116;18.296;2023-09-18T04:35:49;22.40;77.50
51811;DHT22;52468;40.116;18.296;2023-09-18T04:38:17;22.40;77.30
51811;DHT22;52468;40.116;18.296;2023-09-18T04:40:47;22.50;77.20
51811;DHT22;52468;40.116;18.296;2023-09-18T04:43:15;22.50;77.00
51811;DHT22;52468;40.116;18.296;2023-09-18T04:45:44;22.50;76.90
51811;DHT22;52468;40.116;18.296;2023-09-18T04:48:14;22.60;76.80
51811;DHT22;52468;40.116;18.296;2023-09-18T04:50:43;22.60;77.00
51811;DHT22;52468;40.116;18.296;2023-09-18T04:53:13;22.70;76.70
51811;DHT22;52468;40.116;18.296;2023-09-18T04:55:41;22.80;76.50
51811;DHT22;52468;40.116;18.296;2023-09-18T04:58:09;22.70;76.60
51811;DHT22;52468;40.116;18.296;2023-09-18T05:00:37;22.90;76.60
51811;DHT22;52468;40.116;18.296;2023-09-18T05:03:05;23.00;76.10
51811;DHT22;52468;40.116;18.296;2023-09-18T05:05:34;23.10;76.20
51811;DHT22;52468;40.116;18.296;2023-09-18T05:08:05;23.30;76.00
51811;DHT22;52468;40.116;18.296;2023-09-18T05:10:35;23.50;75.40
51811;DHT22;52468;40.116;18.296;2023-09-18T05:13:04;23.60;75.00
51811;DHT22;52468;40.116;18.296;2023-09-18T05:15:32;23.80;74.50
51811;DHT22;52468;40.116;18.296;2023-09-18T05:18:01;24.00;74.20
51811;DHT22;52468;40.116;18.296;2023-09-18T05:20:31;24.10;73.50
51811;DHT22;52468;40.116;18.296;2023-09-18T05:22:59;24.10;73.80
51811;DHT22;52468;40.116;18.296;2023-09-18T05:25:30;24.20;73.50
51811;DHT22;52468;40.116;18.296;2023-09-18T05:28:01;24.50;72.80
51811;DHT22;52468;40.116;18.296;2023-09-18T05:30:34;24.60;72.20
51811;DHT22;52468;40.116;18.296;2023-09-18T05:33:03;24.70;71.90
51811;DHT22;52468;40.116;18.296;2023-09-18T05:35:42;24.90;71.60
51811;DHT22;52468;40.116;18.296;2023-09-18T05:38:11;25.00;71.00
51811;DHT22;52468;40.116;18.296;2023-09-18T05:40:41;25.10;71.10
51811;DHT22;52468;40.116;18.296;2023-09-18T05:43:09;25.10;70.50
51811;DHT22;52468;40.116;18.296;2023-09-18T05:45:38;25.30;70.50
51811;DHT22;52468;40.116;18.296;2023-09-18T05:48:06;25.40;70.00
51811;DHT22;52468;40.116;18.296;2023-09-18T05:50:35;25.50;69.70
51811;DHT22;52468;40.116;18.296;2023-09-18T05:53:03;25.60;69.40
51811;DHT22;52468;40.116;18.296;2023-09-18T05:55:33;25.70;69.50
51811;DHT22;52468;40.116;18.296;2023-09-18T05:58:02;26.00;68.90
51811;DHT22;52468;40.116;18.296;2023-09-18T06:00:35;26.10;68.50
51811;DHT22;52468;40.116;18.296;2023-09-18T06:03:04;26.20;68.40
51811;DHT22;52468;40.116;18.296;2023-09-18T06:05:33;26.20;68.30
51811;DHT22;52468;40.116;18.296;2023-09-18T06:08:02;26.30;68.20
51811;DHT22;52468;40.116;18.296;2023-09-18T06:10:30;26.40;68.30
51811;DHT22;52468;40.116;18.296;2023-09-18T06:12:58;26.60;67.90
51811;DHT22;52468;40.116;18.296;2023-09-18T06:15:32;26.70;67.70
51811;DHT22;52468;40.116;18.296;2023-09-18T06:18:00;26.70;67.40
51811;DHT22;52468;40.116;18.296;2023-09-18T06:20:28;26.80;67.30
51811;DHT22;52468;40.116;18.296;2023-09-18T06:22:56;26.90;67.50
51811;DHT22;52468;40.116;18.296;2023-09-18T06:25:24;26.90;67.30
51811;DHT22;52468;40.116;18.296;2023-09-18T06:27:52;27.00;67.10
51811;DHT22;52468;40.116;18.296;2023-09-18T06:30:20;27.10;66.70
51811;DHT22;52468;40.116;18.296;2023-09-18T06:32:48;27.20;66.30
51811;DHT22;52468;40.116;18.296;2023-09-18T06:35:16;27.20;66.10
51811;DHT22;52468;40.116;18.296;2023-09-18T06:37:44;27.20;66.20
51811;DHT22;52468;40.116;18.296;2023-09-18T06:40:12;27.30;66.00
51811;DHT22;52468;40.116;18.296;2023-09-18T06:42:40;27.40;64.90
51811;DHT22;52468;40.116;18.296;2023-09-18T06:45:12;27.50;64.70
51811;DHT22;52468;40.116;18.296;2023-09-18T06:47:41;27.50;64.60
51811;DHT22;52468;40.116;18.296;2023-09-18T06:50:09;27.50;65.00
51811;DHT22;52468;40.116;18.296;2023-09-18T06:52:39;27.70;64.30
51811;DHT22;52468;40.116;18.296;2023-09-18T06:55:09;27.80;63.60
51811;DHT22;52468;40.116;18.296;2023-09-18T06:57:37;27.90;63.30
51811;DHT22;52468;40.116;18.296;2023-09-18T07:00:05;28.00;63.10
51811;DHT22;52468;40.116;18.296;2023-09-18T07:02:33;28.20;62.00
51811;DHT22;52468;40.116;18.296;2023-09-18T07:05:01;28.30;60.90
51811;DHT22;52468;40.116;18.296;2023-09-18T07:07:29;28.50;60.30
51811;DHT22;52468;40.116;18.296;2023-09-18T07:09:58;28.60;60.00
51811;DHT22;52468;40.116;18.296;2023-09-18T07:12:30;28.60;58.80
51811;DHT22;52468;40.116;18.296;2023-09-18T07:15:01;28.50;58.60
51811;DHT22;52468;40.116;18.296;2023-09-18T07:17:33;28.70;58.40
51811;DHT22;52468;40.116;18.296;2023-09-18T07:20:03;28.70;57.80
51811;DHT22;52468;40.116;18.296;2023-09-18T07:22:46;28.80;57.50
51811;DHT22;52468;40.116;18.296;2023-09-18T07:25:18;28.90;56.50
51811;DHT22;52468;40.116;18.296;2023-09-18T07:27:46;29.00;56.20
51811;DHT22;52468;40.116;18.296;2023-09-18T07:30:14;29.10;56.10
51811;DHT22;52468;40.116;18.296;2023-09-18T07:32:47;29.10;56.20
51811;DHT22;52468;40.116;18.296;2023-09-18T07:35:15;29.30;55.60
51811;DHT22;52468;40.116;18.296;2023-09-18T07:37:45;29.40;55.40
51811;DHT22;52468;40.116;18.296;2023-09-18T07:40:14;29.50;54.80
51811;DHT22;52468;40.116;18.296;2023-09-18T07:42:44;29.60;53.90
51811;DHT22;52468;40.116;18.296;2023-09-18T07:45:12;29.60;54.00
51811;DHT22;52468;40.116;18.296;2023-09-18T07:47:40;29.80;53.40
51811;DHT22;52468;40.116;18.296;2023-09-18T07:50:08;29.80;52.50
51811;DHT22;52468;40.116;18.296;2023-09-18T07:52:36;29.60;53.20
51811;DHT22;52468;40.116;18.296;2023-09-18T07:55:05;29.60;53.50
51811;DHT22;52468;40.116;18.296;2023-09-18T07:57:33;29.60;53.60
51811;DHT22;52468;40.116;18.296;2023-09-18T08:00:02;29.80;53.30
51811;DHT22;52468;40.116;18.296;2023-09-18T08:02:40;30.00;52.40
51811;DHT22;52468;40.116;18.296;2023-09-18T08:05:08;30.00;51.70
51811;DHT22;52468;40.116;18.296;2023-09-18T08:07:36;30.00;51.40
51811;DHT22;52468;40.116;18.296;2023-09-18T08:10:05;30.00;51.70
51811;DHT22;52468;40.116;18.296;2023-09-18T08:12:36;30.20;51.40
51811;DHT22;52468;40.116;18.296;2023-09-18T08:15:04;30.40;51.10
51811;DHT22;52468;40.116;18.296;2023-09-18T08:17:33;30.50;50.30
51811;DHT22;52468;40.116;18.296;2023-09-18T08:20:02;30.50;50.40
51811;DHT22;52468;40.116;18.296;2023-09-18T08:22:31;30.50;50.20
51811;DHT22;52468;40.116;18.296;2023-09-18T08:24:59;30.60;50.30
51811;DHT22;52468;40.116;18.296;2023-09-18T08:27:27;30.80;50.00
51811;DHT22;52468;40.116;18.296;2023-09-18T08:29:56;31.00;49.60
51811;DHT22;52468;40.116;18.296;2023-09-18T08:32:24;31.20;48.90
51811;DHT22;52468;40.116;18.296;2023-09-18T08:34:54;31.10;47.70
51811;DHT22;52468;40.116;18.296;2023-09-18T08:37:22;31.20;47.00
51811;DHT22;52468;40.116;18.296;2023-09-18T08:39:50;31.30;46.80
51811;DHT22;52468;40.116;18.296;2023-09-18T08:42:18;31.40;46.80
51811;DHT22;52468;40.116;18.296;2023-09-18T08:44:51;31.60;46.40
51811;DHT22;52468;40.116;18.296;2023-09-18T08:47:20;31.60;46.10
51811;DHT22;52468;40.116;18.296;2023-09-18T08:49:50;31.60;46.50
51811;DHT22;52468;40.116;18.296;2023-09-18T08:52:20;31.50;47.10
51811;DHT22;52468;40.116;18.296;2023-09-18T08:54:50;31.50;47.50
51811;DHT22;52468;40.116;18.296;2023-09-18T08:57:19;31.60;47.20
51811;DHT22;52468;40.116;18.296;2023-09-18T08:59:48;31.80;47.10
51811;DHT22;52468;40.116;18.296;2023-09-18T09:02:17;31.80;46.90
51811;DHT22;52468;40.116;18.296;2023-09-18T09:04:45;32.00;46.70
51811;DHT22;52468;40.116;18.296;2023-09-18T09:07:13;32.00;46.60
51811;DHT22;52468;40.116;18.296;2023-09-18T09:09:41;32.00;46.70
51811;DHT22;52468;40.116;18.296;2023-09-18T09:12:09;32.20;46.10
51811;DHT22;52468;40.116;18.296;2023-09-18T09:14:37;32.30;45.10
51811;DHT22;52468;40.116;18.296;2023-09-18T09:17:06;32.40;44.70
51811;DHT22;52468;40.116;18.296;2023-09-18T09:19:35;32.50;44.20
51811;DHT22;52468;40.116;18.296;2023-09-18T09:22:06;32.50;44.30
51811;DHT22;52468;40.116;18.296;2023-09-18T09:24:41;32.70;44.20
51811;DHT22;52468;40.116;18.296;2023-09-18T09:27:10;32.90;43.30
51811;DHT22;52468;40.116;18.296;2023-09-18T09:29:38;32.80;43.40
51811;DHT22;52468;40.116;18.296;2023-09-18T09:32:16;32.90;42.90
51811;DHT22;52468;40.116;18.296;2023-09-18T09:34:45;32.90;42.40
51811;DHT22;52468;40.116;18.296;2023-09-18T09:37:13;33.00;41.90
51811;DHT22;52468;40.116;18.296;2023-09-18T09:39:51;33.00;41.60
51811;DHT22;52468;40.116;18.296;2023-09-18T09:42:20;33.00;41.80
51811;DHT22;52468;40.116;18.296;2023-09-18T09:45:04;33.00;42.50
51811;DHT22;52468;40.116;18.296;2023-09-18T09:47:36;33.20;42.40
51811;DHT22;52468;40.116;18.296;2023-09-18T09:50:12;33.40;41.50
51811;DHT22;52468;40.116;18.296;2023-09-18T09:52:42;33.30;41.50
51811;DHT22;52468;40.116;18.296;2023-09-18T09:57:53;33.50;41.10
51811;DHT22;52468;40.116;18.296;2023-09-18T10:00:21;33.60;40.10
51811;DHT22;52468;40.116;18.296;2023-09-18T10:03:01;33.70;39.20
51811;DHT22;52468;40.116;18.296;2023-09-18T10:05:32;33.50;39.20
51811;DHT22;52468;40.116;18.296;2023-09-18T10:08:12;33.80;39.20
51811;DHT22;52468;40.116;18.296;2023-09-18T10:10:46;33.80;38.40
51811;DHT22;52468;40.116;18.296;2023-09-18T10:13:18;34.00;38.20
51811;DHT22;52468;40.116;18.296;2023-09-18T10:15:49;34.00;38.00
51811;DHT22;52468;40.116;18.296;2023-09-18T10:18:34;34.30;38.10
51811;DHT22;52468;40.116;18.296;2023-09-18T10:24:16;34.50;38.60
51811;DHT22;52468;40.116;18.296;2023-09-18T10:26:59;34.70;38.50
51811;DHT22;52468;40.116;18.296;2023-09-18T10:29:29;34.60;37.90
51811;DHT22;52468;40.116;18.296;2023-09-18T10:31:58;34.50;37.70
51811;DHT22;52468;40.116;18.296;2023-09-18T10:34:27;34.30;37.00
51811;DHT22;52468;40.116;18.296;2023-09-18T10:36:55;34.50;38.00
51811;DHT22;52468;40.116;18.296;2023-09-18T10:39:25;34.70;38.00
51811;DHT22;52468;40.116;18.296;2023-09-18T10:41:55;35.00;37.30
51811;DHT22;52468;40.116;18.296;2023-09-18T10:44:24;35.00;36.80
51811;DHT22;52468;40.116;18.296;2023-09-18T10:46:53;35.00;36.70
51811;DHT22;52468;40.116;18.296;2023-09-18T10:49:21;35.00;36.50
51811;DHT22;52468;40.116;18.296;2023-09-18T10:51:54;35.20;36.70
51811;DHT22;52468;40.116;18.296;2023-09-18T10:54:25;35.20;36.20
51811;DHT22;52468;40.116;18.296;2023-09-18T10:56:56;35.20;36.10
51811;DHT22;52468;40.116;18.296;2023-09-18T10:59:24;35.10;36.40
51811;DHT22;52468;40.116;18.296;2023-09-18T11:01:52;35.10;36.60
51811;DHT22;52468;40.116;18.296;2023-09-18T11:04:23;35.10;36.40
51811;DHT22;52468;40.116;18.296;2023-09-18T11:09:24;35.20;36.40
51811;DHT22;52468;40.116;18.296;2023-09-18T11:12:15;35.30;36.30
51811;DHT22;52468;40.116;18.296;2023-09-18T11:14:57;35.20;36.60
51811;DHT22;52468;40.116;18.296;2023-09-18T11:23:10;35.50;37.40
51811;DHT22;52468;40.116;18.296;2023-09-18T11:25:43;35.70;37.30
51811;DHT22;52468;40.116;18.296;2023-09-18T11:28:26;35.70;37.50
51811;DHT22;52468;40.116;18.296;2023-09-18T11:31:00;35.60;37.20
51811;DHT22;52468;40.116;18.296;2023-09-18T11:33:31;35.50;37.30
51811;DHT22;52468;40.116;18.296;2023-09-18T11:36:12;35.60;37.20
51811;DHT22;52468;40.116;18.296;2023-09-18T11:39:11;35.60;37.60
51811;DHT22;52468;40.116;18.296;2023-09-18T11:41:40;35.60;37.90
51811;DHT22;52468;40.116;18.296;2023-09-18T11:46:47;35.50;37.60
51811;DHT22;52468;40.116;18.296;2023-09-18T11:49:23;35.30;37.70
51811;DHT22;52468;40.116;18.296;2023-09-18T11:51:58;35.40;37.20
51811;DHT22;52468;40.116;18.296;2023-09-18T11:54:31;35.50;37.00
51811;DHT22;52468;40.116;18.296;2023-09-18T11:57:04;35.50;37.40
51811;DHT22;52468;40.116;18.296;2023-09-18T11:59:38;35.50;37.60
51811;DHT22;52468;40.116;18.296;2023-09-18T12:02:10;35.50;37.80
51811;DHT22;52468;40.116;18.296;2023-09-18T12:04:39;35.70;37.40
51811;DHT22;52468;40.116;18.296;2023-09-18T12:07:07;35.70;37.20
51811;DHT22;52468;40.116;18.296;2023-09-18T12:09:37;35.70;36.80
51811;DHT22;52468;40.116;18.296;2023-09-18T12:12:06;35.70;36.60
51811;DHT22;52468;40.116;18.296;2023-09-18T12:14:34;35.60;36.80
51811;DHT22;52468;40.116;18.296;2023-09-18T12:17:03;35.70;36.80
51811;DHT22;52468;40.116;18.296;2023-09-18T12:19:31;35.80;36.50
51811;DHT22;52468;40.116;18.296;2023-09-18T12:22:02;35.80;36.30
51811;DHT22;52468;40.116;18.296;2023-09-18T12:24:31;35.80;36.00
51811;DHT22;52468;40.116;18.296;2023-09-18T12:26:59;35.70;36.20
51811;DHT22;52468;40.116;18.296;2023-09-18T12:29:27;35.80;36.20
51811;DHT22;52468;40.116;18.296;2023-09-18T12:31:55;35.90;36.00
51811;DHT22;52468;40.116;18.296;2023-09-18T12:34:23;35.80;35.70
51811;DHT22;52468;40.116;18.296;2023-09-18T12:36:51;35.80;35.60
51811;DHT22;52468;40.116;18.296;2023-09-18T12:39:21;35.90;35.20
51811;DHT22;52468;40.116;18.296;2023-09-18T12:41:48;36.00;35.00
51811;DHT22;52468;40.116;18.296;2023-09-18T12:44:17;36.00;34.90
51811;DHT22;52468;40.116;18.296;2023-09-18T12:46:47;36.00;35.10
51811;DHT22;52468;40.116;18.296;2023-09-18T12:51:57;36.20;34.50
51811;DHT22;52468;40.116;18.296;2023-09-18T12:57:09;35.90;33.70
51811;DHT22;52468;40.116;18.296;2023-09-18T12:59:37;35.60;33.60
51811;DHT22;52468;40.116;18.296;2023-09-18T13:02:06;35.60;34.50
51811;DHT22;52468;40.116;18.296;2023-09-18T13:04:36;35.40;35.00
51811;DHT22;52468;40.116;18.296;2023-09-18T13:07:09;35.20;35.40
51811;DHT22;52468;40.116;18.296;2023-09-18T13:09:38;35.30;35.40
51811;DHT22;52468;40.116;18.296;2023-09-18T13:12:07;35.40;35.30
51811;DHT22;52468;40.116;18.296;2023-09-18T13:14:57;35.30;35.50
51811;DHT22;52468;40.116;18.296;2023-09-18T13:17:25;35.10;35.30
51811;DHT22;52468;40.116;18.296;2023-09-18T13:19:53;35.10;35.40
51811;DHT22;52468;40.116;18.296;2023-09-18T13:22:24;35.40;35.00
51811;DHT22;52468;40.116;18.296;2023-09-18T13:24:56;35.80;34.50
51811;DHT22;52468;40.116;18.296;2023-09-18T13:27:24;35.90;34.50
51811;DHT22;52468;40.116;18.296;2023-09-18T13:29:53;35.60;34.80
51811;DHT22;52468;40.116;18.296;2023-09-18T13:32:24;35.50;34.60
51811;DHT22;52468;40.116;18.296;2023-09-18T13:34:52;35.30;34.80
51811;DHT22;52468;40.116;18.296;2023-09-18T13:37:20;35.40;34.70
51811;DHT22;52468;40.116;18.296;2023-09-18T13:39:48;35.50;34.20
51811;DHT22;52468;40.116;18.296;2023-09-18T13:42:16;35.90;33.10
51811;DHT22;52468;40.116;18.296;2023-09-18T13:44:44;36.20;33.20
51811;DHT22;52468;40.116;18.296;2023-09-18T13:47:14;36.10;33.60
51811;DHT22;52468;40.116;18.296;2023-09-18T13:49:42;36.10;33.40
51811;DHT22;52468;40.116;18.296;2023-09-18T13:52:10;36.50;33.20
51811;DHT22;52468;40.116;18.296;2023-09-18T13:54:38;36.80;32.60
51811;DHT22;52468;40.116;18.296;2023-09-18T13:57:06;37.00;32.30
51811;DHT22;52468;40.116;18.296;2023-09-18T13:59:34;37.00;31.50
51811;DHT22;52468;40.116;18.296;2023-09-18T14:02:02;37.10;31.10
51811;DHT22;52468;40.116;18.296;2023-09-18T14:04:32;37.40;31.10
51811;DHT22;52468;40.116;18.296;2023-09-18T14:07:00;38.10;30.50
51811;DHT22;52468;40.116;18.296;2023-09-18T14:09:28;38.90;29.80
51811;DHT22;52468;40.116;18.296;2023-09-18T14:11:56;39.50;29.00
51811;DHT22;52468;40.116;18.296;2023-09-18T14:14:25;40.10;28.30
51811;DHT22;52468;40.116;18.296;2023-09-18T14:16:52;40.90;27.40
51811;DHT22;52468;40.116;18.296;2023-09-18T14:19:22;41.40;26.40
51811;DHT22;52468;40.116;18.296;2023-09-18T14:21:50;41.90;26.00
51811;DHT22;52468;40.116;18.296;2023-09-18T14:24:19;41.50;25.80
51811;DHT22;52468;40.116;18.296;2023-09-18T14:26:50;41.20;26.20
51811;DHT22;52468;40.116;18.296;2023-09-18T14:29:18;41.30;26.40
51811;DHT22;52468;40.116;18.296;2023-09-18T14:31:47;41.70;26.10
51811;DHT22;52468;40.116;18.296;2023-09-18T14:34:15;41.80;25.80
51811;DHT22;52468;40.116;18.296;2023-09-18T14:36:43;41.90;25.50
51811;DHT22;52468;40.116;18.296;2023-09-18T14:39:15;41.90;25.70
51811;DHT22;52468;40.116;18.296;2023-09-18T14:41:43;42.00;25.50
51811;DHT22;52468;40.116;18.296;2023-09-18T14:44:11;41.50;25.50
51811;DHT22;52468;40.116;18.296;2023-09-18T14:46:39;40.90;25.90
51811;DHT22;52468;40.116;18.296;2023-09-18T14:49:07;40.90;25.80
51811;DHT22;52468;40.116;18.296;2023-09-18T14:51:36;40.90;25.50
51811;DHT22;52468;40.116;18.296;2023-09-18T14:54:03;40.80;25.80
51811;DHT22;52468;40.116;18.296;2023-09-18T14:56:32;41.00;25.70
51811;DHT22;52468;40.116;18.296;2023-09-18T14:59:00;40.80;26.20
51811;DHT22;52468;40.116;18.296;2023-09-18T15:01:29;40.50;26.50
51811;DHT22;52468;40.116;18.296;2023-09-18T15:03:56;40.10;26.80
51811;DHT22;52468;40.116;18.296;2023-09-18T15:06:25;40.10;26.80
51811;DHT22;52468;40.116;18.296;2023-09-18T15:08:53;40.10;27.00
51811;DHT22;52468;40.116;18.296;2023-09-18T15:11:21;40.30;26.90
51811;DHT22;52468;40.116;18.296;2023-09-18T15:13:50;40.50;26.80
51811;DHT22;52468;40.116;18.296;2023-09-18T15:16:18;40.30;26.60
51811;DHT22;52468;40.116;18.296;2023-09-18T15:18:46;40.00;26.50
51811;DHT22;52468;40.116;18.296;2023-09-18T15:21:14;39.40;27.10
51811;DHT22;52468;40.116;18.296;2023-09-18T15:23:42;39.10;27.60
51811;DHT22;52468;40.116;18.296;2023-09-18T15:26:10;38.70;28.70
51811;DHT22;52468;40.116;18.296;2023-09-18T15:28:39;38.30;29.50
51811;DHT22;52468;40.116;18.296;2023-09-18T15:31:08;38.10;29.40
51811;DHT22;52468;40.116;18.296;2023-09-18T15:33:36;37.90;29.60
51811;DHT22;52468;40.116;18.296;2023-09-18T15:36:05;37.50;30.10
51811;DHT22;52468;40.116;18.296;2023-09-18T15:38:32;37.40;30.30
51811;DHT22;52468;40.116;18.296;2023-09-18T15:41:01;37.00;30.80
51811;DHT22;52468;40.116;18.296;2023-09-18T15:43:28;36.30;31.90
51811;DHT22;52468;40.116;18.296;2023-09-18T15:45:59;35.50;32.80
51811;DHT22;52468;40.116;18.296;2023-09-18T15:48:28;35.10;33.60
51811;DHT22;52468;40.116;18.296;2023-09-18T15:50:55;34.50;35.00
51811;DHT22;52468;40.116;18.296;2023-09-18T15:53:23;34.00;35.70
51811;DHT22;52468;40.116;18.296;2023-09-18T15:55:51;33.50;36.40